sensor_id;sensor_type;location;lat;lon;timestamp;pressure;altitude;pressure_sealevel;temperature;humidity
10652;BME280;5374;42.742;23.266;2022-08-25T00:02:04;95277.38;;;20.30;100.00
10652;BME280;5374;42.742;23.266;2022-08-25T00:04:51;95287.69;;;20.28;100.00
10652;BME280;5374;42.742;23.266;2022-08-25T00:07:40;95263.34;;;20.11;100.00
10652;BME280;5374;42.742;23.266;2022-08-25T00:10:27;95293.84;;;20.20;100.00
10652;BME280;5374;42.742;23.266;2022-08-25T00:13:15;95278.47;;;20.21;100.00
10652;BME280;5374;42.742;23.266;2022-08-25T00:16:02;95270.81;;;20.14;100.00
10652;BME280;5374;42.742;23.266;2022-08-25T00:18:51;95292.56;;;20.18;100.00
10652;BME280;5374;42.742;23.266;2022-08-25T00:21:39;95281.94;;;20.21;100.00
10652;BME280;5374;42.742;23.266;2022-08-25T00:24:29;95270.50;;;20.15;100.00
10652;BME280;5374;42.742;23.266;2022-08-25T00:27:16;95270.19;;;20.17;100.00
10652;BME280;5374;42.742;23.266;2022-08-25T00:30:05;95271.78;;;20.18;100.00
10652;BME280;5374;42.742;23.266;2022-08-25T00:32:52;95277.19;;;20.18;100.00
10652;BME280;5374;42.742;23.266;2022-08-25T00:35:39;95238.75;;;19.95;100.00
10652;BME280;5374;42.742;23.266;2022-08-25T00:38:27;95277.66;;;20.20;100.00
10652;BME280;5374;42.742;23.266;2022-08-25T00:41:18;95287.66;;;20.20;100.00
10652;BME280;5374;42.742;23.266;2022-08-25T00:44:07;95283.19;;;20.15;100.00
10652;BME280;5374;42.742;23.266;2022-08-25T00:46:56;95278.78;;;20.19;100.00
10652;BME280;5374;42.742;23.266;2022-08-25T00:49:47;95287.34;;;20.21;100.00
10652;BME280;5374;42.742;23.266;2022-08-25T00:52:37;95277.31;;;20.13;100.00
10652;BME280;5374;42.742;23.266;2022-08-25T00:55:29;95282.09;;;20.07;100.00
10652;BME280;5374;42.742;23.266;2022-08-25T00:58:21;95278.91;;;20.05;100.00
10652;BME280;5374;42.742;23.266;2022-08-25T01:01:10;95284.63;;;20.04;100.00
10652;BME280;5374;42.742;23.266;2022-08-25T01:03:57;95281.13;;;20.12;100.00
10652;BME280;5374;42.742;23.266;2022-08-25T01:06:44;95270.81;;;20.05;100.00
10652;BME280;5374;42.742;23.266;2022-08-25T01:09:34;95262.56;;;20.02;100.00
10652;BME280;5374;42.742;23.266;2022-08-25T01:12:21;95264.47;;;20.01;100.00
10652;BME280;5374;42.742;23.266;2022-08-25T01:15:12;95258.91;;;19.98;100.00
10652;BME280;5374;42.742;23.266;2022-08-25T01:18:01;95252.84;;;19.84;100.00
10652;BME280;5374;42.742;23.266;2022-08-25T01:20:51;95273.63;;;19.92;100.00
10652;BME280;5374;42.742;23.266;2022-08-25T01:23:38;95268.84;;;19.80;100.00
10652;BME280;5374;42.742;23.266;2022-08-25T01:26:29;95268.72;;;19.85;100.00
10652;BME280;5374;42.742;23.266;2022-08-25T01:29:16;95252.50;;;19.76;100.00
10652;BME280;5374;42.742;23.266;2022-08-25T01:32:09;95267.56;;;19.77;100.00
10652;BME280;5374;42.742;23.266;2022-08-25T01:34:56;95252.00;;;19.74;100.00
10652;BME280;5374;42.742;23.266;2022-08-25T01:37:45;95258.50;;;19.73;100.00
10652;BME280;5374;42.742;23.266;2022-08-25T01:40:33;95257.53;;;19.69;100.00
10652;BME280;5374;42.742;23.266;2022-08-25T01:43:30;95248.03;;;19.63;100.00
10652;BME280;5374;42.742;23.266;2022-08-25T01:46:21;95261.38;;;19.77;100.00
10652;BME280;5374;42.742;23.266;2022-08-25T01:49:09;95257.41;;;19.74;100.00
10652;BME280;5374;42.742;23.266;2022-08-25T01:52:00;95255.81;;;19.73;100.00
10652;BME280;5374;42.742;23.266;2022-08-25T01:54:49;95244.53;;;19.71;100.00
10652;BME280;5374;42.742;23.266;2022-08-25T01:57:36;95212.56;;;19.47;100.00
10652;BME280;5374;42.742;23.266;2022-08-25T02:00:23;95254.25;;;19.81;100.00
10652;BME280;5374;42.742;23.266;2022-08-25T02:03:10;95266.63;;;19.82;100.00
10652;BME280;5374;42.742;23.266;2022-08-25T02:05:58;95264.06;;;19.77;100.00
10652;BME280;5374;42.742;23.266;2022-08-25T02:08:49;95275.38;;;19.88;100.00
10652;BME280;5374;42.742;23.266;2022-08-25T02:11:40;95256.97;;;19.90;100.00
10652;BME280;5374;42.742;23.266;2022-08-25T02:14:28;95252.84;;;19.84;100.00
10652;BME280;5374;42.742;23.266;2022-08-25T02:17:15;95255.38;;;19.89;100.00
10652;BME280;5374;42.742;23.266;2022-08-25T02:20:04;95250.94;;;19.93;100.00
10652;BME280;5374;42.742;23.266;2022-08-25T02:22:52;95252.06;;;19.92;100.00
10652;BME280;5374;42.742;23.266;2022-08-25T02:25:40;95236.50;;;19.89;100.00
10652;BME280;5374;42.742;23.266;2022-08-25T02:28:29;95238.75;;;19.87;100.00
10652;BME280;5374;42.742;23.266;2022-08-25T02:31:18;95255.53;;;19.92;100.00
10652;BME280;5374;42.742;23.266;2022-08-25T02:34:08;95245.25;;;19.86;100.00
10652;BME280;5374;42.742;23.266;2022-08-25T02:36:55;95244.09;;;19.78;100.00
10652;BME280;5374;42.742;23.266;2022-08-25T02:39:42;95244.41;;;19.76;100.00
10652;BME280;5374;42.742;23.266;2022-08-25T02:42:30;95243.56;;;19.67;100.00
10652;BME280;5374;42.742;23.266;2022-08-25T02:45:18;95250.13;;;19.75;100.00
10652;BME280;5374;42.742;23.266;2022-08-25T02:48:05;95244.53;;;19.71;100.00
10652;BME280;5374;42.742;23.266;2022-08-25T02:50:52;95246.13;;;19.72;100.00
10652;BME280;5374;42.742;23.266;2022-08-25T02:53:41;95238.69;;;19.69;100.00
10652;BME280;5374;42.742;23.266;2022-08-25T02:56:31;95245.97;;;19.69;100.00
10652;BME280;5374;42.742;23.266;2022-08-25T02:59:19;95250.28;;;19.78;100.00
10652;BME280;5374;42.742;23.266;2022-08-25T03:02:07;95259.31;;;19.74;100.00
10652;BME280;5374;42.742;23.266;2022-08-25T03:04:54;95247.22;;;19.63;100.00
10652;BME280;5374;42.742;23.266;2022-08-25T03:07:42;95247.06;;;19.59;100.00
10652;BME280;5374;42.742;23.266;2022-08-25T03:10:29;95258.63;;;19.60;100.00
10652;BME280;5374;42.742;23.266;2022-08-25T03:13:16;95258.81;;;19.63;100.00
10652;BME280;5374;42.742;23.266;2022-08-25T03:16:05;95252.94;;;19.61;100.00
10652;BME280;5374;42.742;23.266;2022-08-25T03:18:54;95263.41;;;19.63;100.00
10652;BME280;5374;42.742;23.266;2022-08-25T03:21:41;95262.28;;;19.64;100.00
10652;BME280;5374;42.742;23.266;2022-08-25T03:24:31;95252.75;;;19.66;100.00
10652;BME280;5374;42.742;23.266;2022-08-25T03:27:18;95255.47;;;19.66;100.00
10652;BME280;5374;42.742;23.266;2022-08-25T03:30:06;95255.94;;;19.68;100.00
10652;BME280;5374;42.742;23.266;2022-08-25T03:32:53;95252.16;;;19.69;100.00
10652;BME280;5374;42.742;23.266;2022-08-25T03:35:42;95255.16;;;19.68;100.00
10652;BME280;5374;42.742;23.266;2022-08-25T03:38:29;95253.72;;;19.70;100.00
10652;BME280;5374;42.742;23.266;2022-08-25T03:41:18;95243.75;;;19.62;100.00
10652;BME280;5374;42.742;23.266;2022-08-25T03:44:06;95245.81;;;19.65;100.00
10652;BME280;5374;42.742;23.266;2022-08-25T03:46:54;95252.19;;;19.78;100.00
10652;BME280;5374;42.742;23.266;2022-08-25T03:49:41;95259.66;;;19.81;100.00
10652;BME280;5374;42.742;23.266;2022-08-25T03:52:30;95260.63;;;19.85;100.00
10652;BME280;5374;42.742;23.266;2022-08-25T03:55:17;95256.16;;;19.89;100.00
10652;BME280;5374;42.742;23.266;2022-08-25T03:58:04;95253.34;;;19.94;100.00
10652;BME280;5374;42.742;23.266;2022-08-25T04:00:51;95246.53;;;19.97;100.00
10652;BME280;5374;42.742;23.266;2022-08-25T04:03:38;95238.59;;;19.92;100.00
10652;BME280;5374;42.742;23.266;2022-08-25T04:06:25;95242.91;;;20.01;100.00
10652;BME280;5374;42.742;23.266;2022-08-25T04:09:14;95245.28;;;20.03;100.00
10652;BME280;5374;42.742;23.266;2022-08-25T04:12:01;95249.25;;;20.05;100.00
10652;BME280;5374;42.742;23.266;2022-08-25T04:14:49;95241.78;;;20.11;100.00
10652;BME280;5374;42.742;23.266;2022-08-25T04:17:38;95233.25;;;20.09;100.00
10652;BME280;5374;42.742;23.266;2022-08-25T04:20:25;95230.38;;;20.14;100.00
10652;BME280;5374;42.742;23.266;2022-08-25T04:23:13;95239.78;;;20.25;100.00
10652;BME280;5374;42.742;23.266;2022-08-25T04:26:01;95215.47;;;20.17;100.00
10652;BME280;5374;42.742;23.266;2022-08-25T04:28:49;95243.94;;;20.40;100.00
10652;BME280;5374;42.742;23.266;2022-08-25T04:31:39;95239.66;;;20.47;100.00
10652;BME280;5374;42.742;23.266;2022-08-25T04:34:26;95241.25;;;20.66;100.00
10652;BME280;5374;42.742;23.266;2022-08-25T04:37:14;95236.94;;;20.91;100.00
10652;BME280;5374;42.742;23.266;2022-08-25T04:40:02;95242.09;;;21.39;100.00
10652;BME280;5374;42.742;23.266;2022-08-25T04:42:50;95235.91;;;21.76;100.00
10652;BME280;5374;42.742;23.266;2022-08-25T04:45:38;95256.94;;;22.09;100.00
10652;BME280;5374;42.742;23.266;2022-08-25T04:48:26;95263.28;;;22.13;100.00
10652;BME280;5374;42.742;23.266;2022-08-25T04:51:16;95267.34;;;22.69;100.00
10652;BME280;5374;42.742;23.266;2022-08-25T04:54:05;95266.81;;;23.17;100.00
10652;BME280;5374;42.742;23.266;2022-08-25T04:56:52;95263.03;;;23.43;100.00
10652;BME280;5374;42.742;23.266;2022-08-25T04:59:41;95253.63;;;23.85;100.00
10652;BME280;5374;42.742;23.266;2022-08-25T05:02:28;95260.97;;;23.97;100.00
10652;BME280;5374;42.742;23.266;2022-08-25T05:05:15;95257.56;;;24.49;95.56
10652;BME280;5374;42.742;23.266;2022-08-25T05:08:03;95260.78;;;24.39;94.13
10652;BME280;5374;42.742;23.266;2022-08-25T05:10:50;95264.72;;;24.17;96.22
10652;BME280;5374;42.742;23.266;2022-08-25T05:13:39;95257.94;;;23.99;97.90
10652;BME280;5374;42.742;23.266;2022-08-25T05:16:28;95255.22;;;23.86;99.39
10652;BME280;5374;42.742;23.266;2022-08-25T05:19:16;95248.66;;;23.75;99.91
10652;BME280;5374;42.742;23.266;2022-08-25T05:22:03;95257.44;;;23.72;100.00
10652;BME280;5374;42.742;23.266;2022-08-25T05:24:51;95250.88;;;23.49;100.00
10652;BME280;5374;42.742;23.266;2022-08-25T05:27:38;95262.84;;;23.48;100.00
10652;BME280;5374;42.742;23.266;2022-08-25T05:30:25;95234.75;;;23.19;100.00
10652;BME280;5374;42.742;23.266;2022-08-25T05:33:14;95225.22;;;23.01;100.00
10652;BME280;5374;42.742;23.266;2022-08-25T05:36:02;95242.22;;;23.23;100.00
10652;BME280;5374;42.742;23.266;2022-08-25T05:38:50;95253.06;;;23.35;100.00
10652;BME280;5374;42.742;23.266;2022-08-25T05:41:37;95244.09;;;23.55;100.00
10652;BME280;5374;42.742;23.266;2022-08-25T05:44:25;95245.94;;;23.75;100.00
10652;BME280;5374;42.742;23.266;2022-08-25T05:47:12;95254.31;;;24.07;100.00
10652;BME280;5374;42.742;23.266;2022-08-25T05:50:00;95250.63;;;24.64;100.00
10652;BME280;5374;42.742;23.266;2022-08-25T05:52:47;95253.28;;;25.00;95.46
10652;BME280;5374;42.742;23.266;2022-08-25T05:55:35;95249.41;;;25.29;91.35
10652;BME280;5374;42.742;23.266;2022-08-25T05:58:23;95245.38;;;25.54;88.55
10652;BME280;5374;42.742;23.266;2022-08-25T06:01:20;95248.16;;;25.70;87.84
10652;BME280;5374;42.742;23.266;2022-08-25T06:04:24;95250.63;;;25.91;85.46
10652;BME280;5374;42.742;23.266;2022-08-25T06:07:13;95238.75;;;25.99;83.45
10652;BME280;5374;42.742;23.266;2022-08-25T06:10:00;95235.22;;;26.30;80.94
10652;BME280;5374;42.742;23.266;2022-08-25T06:12:48;95246.25;;;26.53;79.93
10652;BME280;5374;42.742;23.266;2022-08-25T06:15:35;95231.91;;;26.56;77.99
10652;BME280;5374;42.742;23.266;2022-08-25T06:18:22;95256.25;;;26.84;76.67
10652;BME280;5374;42.742;23.266;2022-08-25T06:21:11;95243.09;;;27.05;75.57
10652;BME280;5374;42.742;23.266;2022-08-25T06:24:00;95245.69;;;27.40;73.57
10652;BME280;5374;42.742;23.266;2022-08-25T06:26:47;95241.50;;;27.66;70.88
10652;BME280;5374;42.742;23.266;2022-08-25T06:29:34;95219.47;;;28.01;69.40
10652;BME280;5374;42.742;23.266;2022-08-25T06:32:21;95235.72;;;28.43;67.07
10652;BME280;5374;42.742;23.266;2022-08-25T06:35:11;95230.97;;;28.96;65.52
10652;BME280;5374;42.742;23.266;2022-08-25T06:37:59;95219.59;;;29.24;64.59
10652;BME280;5374;42.742;23.266;2022-08-25T06:40:47;95229.38;;;29.25;63.07
10652;BME280;5374;42.742;23.266;2022-08-25T06:43:37;95229.22;;;29.11;61.98
10652;BME280;5374;42.742;23.266;2022-08-25T06:46:26;95230.25;;;29.33;61.73
10652;BME280;5374;42.742;23.266;2022-08-25T06:49:14;95231.50;;;29.79;60.79
10652;BME280;5374;42.742;23.266;2022-08-25T06:52:02;95233.13;;;30.35;58.71
10652;BME280;5374;42.742;23.266;2022-08-25T06:54:49;95229.69;;;30.45;56.66
10652;BME280;5374;42.742;23.266;2022-08-25T06:57:39;95229.47;;;30.72;56.41
10652;BME280;5374;42.742;23.266;2022-08-25T07:00:26;95239.41;;;31.05;54.95
10652;BME280;5374;42.742;23.266;2022-08-25T07:03:13;95230.50;;;31.29;55.33
10652;BME280;5374;42.742;23.266;2022-08-25T07:06:00;95221.88;;;31.41;54.49
10652;BME280;5374;42.742;23.266;2022-08-25T07:08:47;95238.06;;;31.71;54.33
10652;BME280;5374;42.742;23.266;2022-08-25T07:11:34;95234.16;;;31.93;51.41
10652;BME280;5374;42.742;23.266;2022-08-25T07:14:23;95232.19;;;31.87;50.79
10652;BME280;5374;42.742;23.266;2022-08-25T07:17:10;95237.59;;;31.51;53.19
10652;BME280;5374;42.742;23.266;2022-08-25T07:19:57;95235.19;;;31.25;52.93
10652;BME280;5374;42.742;23.266;2022-08-25T07:22:45;95220.91;;;30.84;53.03
10652;BME280;5374;42.742;23.266;2022-08-25T07:25:33;95225.97;;;30.82;54.29
10652;BME280;5374;42.742;23.266;2022-08-25T07:28:21;95219.66;;;30.71;54.31
10652;BME280;5374;42.742;23.266;2022-08-25T07:31:11;95230.03;;;30.40;54.30
10652;BME280;5374;42.742;23.266;2022-08-25T07:33:59;95236.06;;;30.09;55.53
10652;BME280;5374;42.742;23.266;2022-08-25T07:37:03;95231.13;;;29.84;55.59
10652;BME280;5374;42.742;23.266;2022-08-25T07:39:51;95235.16;;;29.53;57.26
10652;BME280;5374;42.742;23.266;2022-08-25T07:42:38;95234.03;;;29.24;57.57
10652;BME280;5374;42.742;23.266;2022-08-25T07:45:28;95230.16;;;29.25;58.33
10652;BME280;5374;42.742;23.266;2022-08-25T07:48:17;95234.19;;;29.39;57.87
10652;BME280;5374;42.742;23.266;2022-08-25T07:51:06;95236.78;;;29.24;58.05
10652;BME280;5374;42.742;23.266;2022-08-25T07:53:53;95222.13;;;29.40;58.32
10652;BME280;5374;42.742;23.266;2022-08-25T07:56:41;95223.25;;;29.39;57.29
10652;BME280;5374;42.742;23.266;2022-08-25T07:59:28;95214.41;;;29.49;57.08
10652;BME280;5374;42.742;23.266;2022-08-25T08:02:16;95216.09;;;29.64;56.53
10652;BME280;5374;42.742;23.266;2022-08-25T08:05:05;95197.50;;;29.80;56.67
10652;BME280;5374;42.742;23.266;2022-08-25T08:07:53;95213.03;;;30.17;54.19
10652;BME280;5374;42.742;23.266;2022-08-25T08:10:41;95214.66;;;30.28;54.09
10652;BME280;5374;42.742;23.266;2022-08-25T08:13:28;95207.84;;;30.59;54.11
10652;BME280;5374;42.742;23.266;2022-08-25T08:16:17;95202.13;;;30.89;52.87
10652;BME280;5374;42.742;23.266;2022-08-25T08:19:05;95203.44;;;31.24;51.37
10652;BME280;5374;42.742;23.266;2022-08-25T08:21:53;95203.09;;;31.36;51.68
10652;BME280;5374;42.742;23.266;2022-08-25T08:24:41;95189.78;;;31.56;50.88
10652;BME280;5374;42.742;23.266;2022-08-25T08:27:29;95187.44;;;31.86;50.79
10652;BME280;5374;42.742;23.266;2022-08-25T08:30:16;95198.47;;;32.08;48.92
10652;BME280;5374;42.742;23.266;2022-08-25T08:33:03;95182.72;;;32.44;48.16
10652;BME280;5374;42.742;23.266;2022-08-25T08:36:00;95181.06;;;32.64;48.71
10652;BME280;5374;42.742;23.266;2022-08-25T08:38:49;95184.28;;;32.41;46.66
10652;BME280;5374;42.742;23.266;2022-08-25T08:41:52;95187.47;;;31.97;48.00
10652;BME280;5374;42.742;23.266;2022-08-25T08:45:10;95180.41;;;31.78;46.82
10652;BME280;5374;42.742;23.266;2022-08-25T08:48:18;95171.75;;;32.05;45.90
10652;BME280;5374;42.742;23.266;2022-08-25T08:51:17;95166.69;;;31.78;46.10
10652;BME280;5374;42.742;23.266;2022-08-25T08:54:09;95170.19;;;31.86;44.92
10652;BME280;5374;42.742;23.266;2022-08-25T08:57:03;95178.03;;;31.91;43.46
10652;BME280;5374;42.742;23.266;2022-08-25T08:59:55;95136.44;;;31.53;42.79
10652;BME280;5374;42.742;23.266;2022-08-25T09:02:48;95180.41;;;31.78;44.92
10652;BME280;5374;42.742;23.266;2022-08-25T09:05:42;95179.19;;;31.58;47.04
10652;BME280;5374;42.742;23.266;2022-08-25T09:08:31;95181.94;;;31.58;46.72
10652;BME280;5374;42.742;23.266;2022-08-25T09:11:25;95165.34;;;31.08;43.81
10652;BME280;5374;42.742;23.266;2022-08-25T09:14:25;95171.56;;;30.91;43.83
10652;BME280;5374;42.742;23.266;2022-08-25T09:17:23;95176.19;;;30.76;47.77
10652;BME280;5374;42.742;23.266;2022-08-25T09:23:40;95169.69;;;30.33;45.88
10652;BME280;5374;42.742;23.266;2022-08-25T09:26:36;95171.94;;;30.17;46.63
10652;BME280;5374;42.742;23.266;2022-08-25T09:29:29;95164.31;;;30.54;44.01
10652;BME280;5374;42.742;23.266;2022-08-25T09:32:22;95166.78;;;30.70;42.84
10652;BME280;5374;42.742;23.266;2022-08-25T09:35:13;95173.69;;;30.46;44.18
10652;BME280;5374;42.742;23.266;2022-08-25T09:38:04;95169.53;;;30.70;42.41
10652;BME280;5374;42.742;23.266;2022-08-25T09:40:55;95160.53;;;30.70;41.60
10652;BME280;5374;42.742;23.266;2022-08-25T09:43:52;95174.47;;;30.43;42.67
10652;BME280;5374;42.742;23.266;2022-08-25T09:46:39;95168.16;;;30.39;44.17
10652;BME280;5374;42.742;23.266;2022-08-25T09:49:33;95167.41;;;30.42;43.40
10652;BME280;5374;42.742;23.266;2022-08-25T09:52:34;95165.03;;;29.86;44.53
10652;BME280;5374;42.742;23.266;2022-08-25T09:55:30;95160.97;;;29.25;45.87
10652;BME280;5374;42.742;23.266;2022-08-25T09:58:21;95162.75;;;29.44;45.44
10652;BME280;5374;42.742;23.266;2022-08-25T10:01:15;95159.41;;;29.65;46.01
10652;BME280;5374;42.742;23.266;2022-08-25T10:04:04;95167.72;;;29.75;45.89
10652;BME280;5374;42.742;23.266;2022-08-25T10:06:52;95164.13;;;29.68;46.36
10652;BME280;5374;42.742;23.266;2022-08-25T10:09:41;95178.66;;;29.75;46.04
10652;BME280;5374;42.742;23.266;2022-08-25T10:12:31;95169.00;;;29.44;47.17
10652;BME280;5374;42.742;23.266;2022-08-25T10:15:25;95172.19;;;29.50;46.51
10652;BME280;5374;42.742;23.266;2022-08-25T10:18:24;95162.66;;;29.77;44.43
10652;BME280;5374;42.742;23.266;2022-08-25T10:21:13;95154.81;;;30.27;45.35
10652;BME280;5374;42.742;23.266;2022-08-25T10:24:02;95156.56;;;30.64;44.67
10652;BME280;5374;42.742;23.266;2022-08-25T10:26:54;95147.28;;;30.97;41.20
10652;BME280;5374;42.742;23.266;2022-08-25T10:30:14;95163.34;;;30.98;42.09
10652;BME280;5374;42.742;23.266;2022-08-25T10:33:09;95164.88;;;30.85;39.03
10652;BME280;5374;42.742;23.266;2022-08-25T10:36:05;95145.63;;;30.71;39.79
10652;BME280;5374;42.742;23.266;2022-08-25T10:38:56;95151.59;;;30.94;40.26
10652;BME280;5374;42.742;23.266;2022-08-25T10:41:50;95155.13;;;30.98;39.37
10652;BME280;5374;42.742;23.266;2022-08-25T10:44:47;95164.53;;;31.04;39.63
10652;BME280;5374;42.742;23.266;2022-08-25T10:48:08;95158.19;;;30.72;39.45
10652;BME280;5374;42.742;23.266;2022-08-25T10:51:07;95139.28;;;30.56;39.91
10652;BME280;5374;42.742;23.266;2022-08-25T10:54:00;95154.47;;;30.39;40.33
10652;BME280;5374;42.742;23.266;2022-08-25T10:56:57;95144.63;;;30.31;40.57
10652;BME280;5374;42.742;23.266;2022-08-25T10:59:58;95146.69;;;30.52;41.06
10652;BME280;5374;42.742;23.266;2022-08-25T11:03:08;95141.34;;;30.77;40.10
10652;BME280;5374;42.742;23.266;2022-08-25T11:06:02;95147.28;;;30.93;39.40
10652;BME280;5374;42.742;23.266;2022-08-25T11:08:52;95140.19;;;30.81;40.81
10652;BME280;5374;42.742;23.266;2022-08-25T11:11:45;95140.97;;;30.85;39.58
10652;BME280;5374;42.742;23.266;2022-08-25T11:14:37;95139.34;;;30.67;40.27
10652;BME280;5374;42.742;23.266;2022-08-25T11:17:40;95130.13;;;30.31;40.68
10652;BME280;5374;42.742;23.266;2022-08-25T11:20:31;95128.53;;;30.19;41.03
10652;BME280;5374;42.742;23.266;2022-08-25T11:23:24;95113.09;;;29.97;42.52
10652;BME280;5374;42.742;23.266;2022-08-25T11:26:16;95116.94;;;29.81;42.29
10652;BME280;5374;42.742;23.266;2022-08-25T11:29:11;95118.88;;;29.84;43.54
10652;BME280;5374;42.742;23.266;2022-08-25T11:32:00;95112.03;;;30.12;42.22
10652;BME280;5374;42.742;23.266;2022-08-25T11:34:47;95107.81;;;30.25;41.37
10652;BME280;5374;42.742;23.266;2022-08-25T11:37:42;95104.78;;;30.44;40.99
10652;BME280;5374;42.742;23.266;2022-08-25T11:40:40;95107.06;;;30.35;42.77
10652;BME280;5374;42.742;23.266;2022-08-25T11:43:49;95088.13;;;30.05;41.64
10652;BME280;5374;42.742;23.266;2022-08-25T11:46:55;95094.81;;;30.04;42.69
10652;BME280;5374;42.742;23.266;2022-08-25T11:49:52;95098.41;;;30.22;41.74
10652;BME280;5374;42.742;23.266;2022-08-25T11:52:45;95090.56;;;30.17;40.84
10652;BME280;5374;42.742;23.266;2022-08-25T11:55:48;95094.38;;;29.99;40.92
10652;BME280;5374;42.742;23.266;2022-08-25T11:58:39;95083.91;;;29.60;41.43
10652;BME280;5374;42.742;23.266;2022-08-25T12:04:53;95094.91;;;29.67;40.66
10652;BME280;5374;42.742;23.266;2022-08-25T12:08:02;95084.78;;;29.71;40.37
10652;BME280;5374;42.742;23.266;2022-08-25T12:11:08;95085.84;;;30.14;39.63
10652;BME280;5374;42.742;23.266;2022-08-25T12:14:09;95078.06;;;30.31;38.86
10652;BME280;5374;42.742;23.266;2022-08-25T12:17:18;95082.84;;;30.41;38.94
10652;BME280;5374;42.742;23.266;2022-08-25T12:20:09;95088.91;;;30.06;39.71
10652;BME280;5374;42.742;23.266;2022-08-25T12:23:00;95083.22;;;29.74;39.73
10652;BME280;5374;42.742;23.266;2022-08-25T12:25:49;95092.22;;;29.74;40.43
10652;BME280;5374;42.742;23.266;2022-08-25T12:28:50;95088.75;;;29.84;39.73
10652;BME280;5374;42.742;23.266;2022-08-25T12:32:02;95089.63;;;29.96;39.24
10652;BME280;5374;42.742;23.266;2022-08-25T12:35:28;95097.94;;;30.10;38.76
10652;BME280;5374;42.742;23.266;2022-08-25T12:38:28;95096.84;;;30.21;38.70
10652;BME280;5374;42.742;23.266;2022-08-25T12:41:19;95090.09;;;30.08;38.82
10652;BME280;5374;42.742;23.266;2022-08-25T12:44:34;95078.66;;;29.92;39.50
10652;BME280;5374;42.742;23.266;2022-08-25T12:47:29;95073.13;;;29.81;39.61
10652;BME280;5374;42.742;23.266;2022-08-25T12:50:28;95067.63;;;29.85;40.45
10652;BME280;5374;42.742;23.266;2022-08-25T12:53:27;95073.91;;;29.82;39.25
10652;BME280;5374;42.742;23.266;2022-08-25T12:56:27;95067.09;;;29.58;38.82
10652;BME280;5374;42.742;23.266;2022-08-25T12:59:21;95075.19;;;29.44;38.94
10652;BME280;5374;42.742;23.266;2022-08-25T13:02:37;95073.34;;;29.62;39.02
10652;BME280;5374;42.742;23.266;2022-08-25T13:05:57;95082.69;;;29.54;39.33
10652;BME280;5374;42.742;23.266;2022-08-25T13:12:10;95087.59;;;29.34;40.44
10652;BME280;5374;42.742;23.266;2022-08-25T13:15:01;95071.50;;;29.25;40.73
10652;BME280;5374;42.742;23.266;2022-08-25T13:17:48;95081.75;;;29.39;40.01
10652;BME280;5374;42.742;23.266;2022-08-25T13:20:37;95081.75;;;29.39;40.67
10652;BME280;5374;42.742;23.266;2022-08-25T13:23:27;95073.94;;;29.38;41.04
10652;BME280;5374;42.742;23.266;2022-08-25T13:26:23;95078.69;;;29.41;41.31
10652;BME280;5374;42.742;23.266;2022-08-25T13:29:13;95082.53;;;29.36;40.80
10652;BME280;5374;42.742;23.266;2022-08-25T13:32:05;95071.50;;;29.25;40.70
10652;BME280;5374;42.742;23.266;2022-08-25T13:35:11;95070.00;;;29.32;39.87
10652;BME280;5374;42.742;23.266;2022-08-25T13:38:13;95048.63;;;29.48;39.98
10652;BME280;5374;42.742;23.266;2022-08-25T13:41:09;95072.28;;;29.74;39.33
10652;BME280;5374;42.742;23.266;2022-08-25T13:44:00;95069.59;;;29.81;39.12
10652;BME280;5374;42.742;23.266;2022-08-25T13:46:47;95073.44;;;29.73;39.02
10652;BME280;5374;42.742;23.266;2022-08-25T13:49:51;95069.09;;;29.68;39.10
10652;BME280;5374;42.742;23.266;2022-08-25T13:52:42;95077.25;;;29.61;39.72
10652;BME280;5374;42.742;23.266;2022-08-25T13:55:35;95073.03;;;29.71;39.52
10652;BME280;5374;42.742;23.266;2022-08-25T13:58:25;95066.31;;;29.61;39.06
10652;BME280;5374;42.742;23.266;2022-08-25T14:01:16;95072.97;;;29.64;39.62
10652;BME280;5374;42.742;23.266;2022-08-25T14:04:28;95062.00;;;29.56;38.84
10652;BME280;5374;42.742;23.266;2022-08-25T14:07:28;95078.41;;;29.60;38.62
10652;BME280;5374;42.742;23.266;2022-08-25T14:10:32;95068.97;;;29.47;39.25
10652;BME280;5374;42.742;23.266;2022-08-25T14:13:29;95065.69;;;29.31;40.06
10652;BME280;5374;42.742;23.266;2022-08-25T14:16:19;95080.75;;;29.54;39.96
10652;BME280;5374;42.742;23.266;2022-08-25T14:19:12;95071.34;;;29.52;39.26
10652;BME280;5374;42.742;23.266;2022-08-25T14:22:00;95065.47;;;29.50;39.34
10652;BME280;5374;42.742;23.266;2022-08-25T14:24:50;95073.75;;;29.60;40.04
10652;BME280;5374;42.742;23.266;2022-08-25T14:27:41;95073.69;;;29.53;39.41
10652;BME280;5374;42.742;23.266;2022-08-25T14:30:28;95061.91;;;29.46;39.24
10652;BME280;5374;42.742;23.266;2022-08-25T14:33:18;95057.50;;;29.38;39.61
10652;BME280;5374;42.742;23.266;2022-08-25T14:36:06;95056.25;;;29.24;39.34
10652;BME280;5374;42.742;23.266;2022-08-25T14:38:53;95067.97;;;29.25;39.45
10652;BME280;5374;42.742;23.266;2022-08-25T14:41:42;95075.78;;;29.23;39.78
10652;BME280;5374;42.742;23.266;2022-08-25T14:44:30;95062.44;;;29.14;39.63
10652;BME280;5374;42.742;23.266;2022-08-25T14:47:18;95065.81;;;29.01;40.37
10652;BME280;5374;42.742;23.266;2022-08-25T14:50:05;95069.06;;;29.13;39.95
10652;BME280;5374;42.742;23.266;2022-08-25T14:52:53;95063.59;;;29.17;39.89
10652;BME280;5374;42.742;23.266;2022-08-25T14:55:40;95058.97;;;29.24;39.66
10652;BME280;5374;42.742;23.266;2022-08-25T14:58:28;95070.63;;;29.14;39.60
10652;BME280;5374;42.742;23.266;2022-08-25T15:01:17;95057.22;;;29.02;40.12
10652;BME280;5374;42.742;23.266;2022-08-25T15:04:08;95062.28;;;29.00;40.90
10652;BME280;5374;42.742;23.266;2022-08-25T15:07:00;95057.16;;;28.95;40.91
10652;BME280;5374;42.742;23.266;2022-08-25T15:10:08;95068.09;;;28.95;40.77
10652;BME280;5374;42.742;23.266;2022-08-25T15:12:55;95062.22;;;28.93;41.56
10652;BME280;5374;42.742;23.266;2022-08-25T15:15:44;95066.06;;;28.85;40.14